createdAt,value
2019-03-08T00:02:26.280Z,9.10
2019-03-08T00:04:54.501Z,9.20
2019-03-08T00:07:22.728Z,9.20
2019-03-08T00:09:51.259Z,9.20
2019-03-08T00:12:19.488Z,9.20
2019-03-08T00:14:47.727Z,9.20
2019-03-08T00:17:15.961Z,9.20
2019-03-08T00:19:44.185Z,9.20
2019-03-08T00:22:12.414Z,9.20
2019-03-08T00:24:40.645Z,9.20
2019-03-08T00:27:08.863Z,9.10
2019-03-08T00:29:37.097Z,9.10
2019-03-08T00:32:05.346Z,9.00
2019-03-08T00:34:33.570Z,9.10
2019-03-08T00:37:01.810Z,9.10
2019-03-08T00:39:30.052Z,9.10
2019-03-08T00:41:58.344Z,9.10
2019-03-08T00:44:26.586Z,9.10
2019-03-08T00:46:54.810Z,9.10
2019-03-08T00:49:23.032Z,9.10
2019-03-08T00:51:51.277Z,9.10
2019-03-08T00:54:19.511Z,9.00
2019-03-08T00:56:48.021Z,9.10
2019-03-08T00:59:16.243Z,9.00
2019-03-08T01:01:44.514Z,9.00
2019-03-08T01:04:12.739Z,9.00
2019-03-08T01:06:40.968Z,9.00
2019-03-08T01:09:09.204Z,9.00
2019-03-08T01:11:37.695Z,8.90
2019-03-08T01:14:05.930Z,9.00
2019-03-08T01:16:34.165Z,9.00
2019-03-08T01:19:04.038Z,8.90
2019-03-08T01:21:32.263Z,9.00
2019-03-08T01:24:00.512Z,9.00
2019-03-08T01:26:29.105Z,8.90
2019-03-08T01:28:57.348Z,8.90
2019-03-08T01:31:25.572Z,8.90
2019-03-08T01:33:53.803Z,8.90
2019-03-08T01:36:22.040Z,8.90
2019-03-08T01:38:50.285Z,8.90
2019-03-08T01:41:18.872Z,8.90
2019-03-08T01:43:47.104Z,8.90
2019-03-08T01:46:15.336Z,9.00
2019-03-08T01:48:43.574Z,8.90
2019-03-08T01:51:11.839Z,8.90
2019-03-08T01:53:40.071Z,8.90
2019-03-08T01:56:08.362Z,8.90
2019-03-08T01:58:36.606Z,9.00
2019-03-08T02:01:04.871Z,8.90
2019-03-08T02:03:33.117Z,9.00
2019-03-08T02:06:01.349Z,9.00
2019-03-08T02:08:29.584Z,8.90
2019-03-08T02:10:58.097Z,8.90
2019-03-08T02:13:26.347Z,8.80
2019-03-08T02:15:54.567Z,8.80
2019-03-08T02:18:22.830Z,8.70
2019-03-08T02:20:52.334Z,8.70
2019-03-08T02:23:20.675Z,8.60
2019-03-08T02:25:49.298Z,8.60
2019-03-08T02:28:17.536Z,8.60
2019-03-08T02:30:45.771Z,8.50
2019-03-08T02:33:14.008Z,8.50
2019-03-08T02:35:42.230Z,8.40
2019-03-08T02:38:10.471Z,8.40
2019-03-08T02:40:39.267Z,8.30
2019-03-08T02:43:13.088Z,8.30
2019-03-08T02:45:41.337Z,8.20
2019-03-08T02:48:09.575Z,8.20
2019-03-08T02:50:37.871Z,8.20
2019-03-08T02:53:06.082Z,8.10
2019-03-08T02:55:34.603Z,8.10
2019-03-08T02:58:02.817Z,8.00
2019-03-08T03:00:33.587Z,8.00
2019-03-08T03:03:01.823Z,8.00
2019-03-08T03:05:30.034Z,7.90
2019-03-08T03:07:58.292Z,7.90
2019-03-08T03:10:26.512Z,8.00
2019-03-08T03:12:54.745Z,8.00
2019-03-08T03:15:22.982Z,8.00
2019-03-08T03:17:51.204Z,7.90
2019-03-08T03:20:19.430Z,8.00
2019-03-08T03:22:47.677Z,8.00
2019-03-08T03:25:16.198Z,8.00
2019-03-08T03:27:44.443Z,8.00
2019-03-08T03:30:17.980Z,7.90
2019-03-08T03:32:46.210Z,7.70
2019-03-08T03:35:14.422Z,7.60
2019-03-08T03:37:42.673Z,7.40
2019-03-08T03:40:13.911Z,7.30
2019-03-08T03:42:42.135Z,7.20
2019-03-08T03:45:12.315Z,7.20
2019-03-08T03:47:40.534Z,7.10
2019-03-08T03:50:11.193Z,7.00
2019-03-08T03:52:39.692Z,7.00
2019-03-08T03:55:14.373Z,6.90
2019-03-08T03:57:42.610Z,7.00
2019-03-08T04:00:24.146Z,7.00
2019-03-08T04:02:52.763Z,7.00
2019-03-08T04:05:20.986Z,7.00
2019-03-08T04:07:49.240Z,6.90
2019-03-08T04:10:17.897Z,6.90
2019-03-08T04:12:46.121Z,7.00
2019-03-08T04:15:18.687Z,6.90
2019-03-08T04:17:47.094Z,6.90
2019-03-08T04:20:16.518Z,6.90
2019-03-08T04:22:44.759Z,6.90
2019-03-08T04:25:13.783Z,6.80
2019-03-08T04:27:42.087Z,6.90
2019-03-08T04:30:13.238Z,6.90
2019-03-08T04:32:41.494Z,6.90
2019-03-08T04:35:09.728Z,6.90
2019-03-08T04:37:37.964Z,6.90
2019-03-08T04:40:10.484Z,6.90
2019-03-08T04:42:38.727Z,6.90
2019-03-08T04:45:11.913Z,6.90
2019-03-08T04:47:40.149Z,6.90
2019-03-08T04:50:10.611Z,6.90
2019-03-08T04:52:38.873Z,7.00
2019-03-08T04:55:10.291Z,7.00
2019-03-08T04:57:38.508Z,7.00
2019-03-08T05:00:10.288Z,7.00
2019-03-08T05:02:38.500Z,7.00
2019-03-08T05:05:06.891Z,6.90
2019-03-08T05:07:35.142Z,6.90
2019-03-08T05:10:04.990Z,6.80
2019-03-08T05:12:33.246Z,6.80
2019-03-08T05:15:01.505Z,6.80
2019-03-08T05:17:29.727Z,6.80
2019-03-08T05:19:57.978Z,6.70
2019-03-08T05:22:26.210Z,6.80
2019-03-08T05:24:54.468Z,6.80
2019-03-08T05:27:22.696Z,6.80
2019-03-08T05:29:51.029Z,6.80
2019-03-08T05:32:19.298Z,6.80
2019-03-08T05:34:47.520Z,6.80
2019-03-08T05:37:15.760Z,6.70
2019-03-08T05:39:44.001Z,6.80
2019-03-08T05:42:12.229Z,6.80
2019-03-08T05:44:40.742Z,6.70
2019-03-08T05:47:08.958Z,6.70
2019-03-08T05:49:37.206Z,6.70
2019-03-08T05:52:05.431Z,6.80
2019-03-08T05:54:33.685Z,6.80
2019-03-08T05:57:01.926Z,6.70
2019-03-08T05:59:30.147Z,6.70
2019-03-08T06:01:58.392Z,6.80
2019-03-08T06:04:26.601Z,6.80
2019-03-08T06:06:54.866Z,6.80
2019-03-08T06:09:23.100Z,6.90
2019-03-08T06:11:51.338Z,6.90
2019-03-08T06:14:19.571Z,6.90
2019-03-08T06:16:48.165Z,6.90
2019-03-08T06:19:16.422Z,6.90
2019-03-08T06:21:44.643Z,6.90
2019-03-08T06:24:12.885Z,6.90
2019-03-08T06:26:41.102Z,6.80
2019-03-08T06:29:09.327Z,6.90
2019-03-08T06:31:37.560Z,6.90
2019-03-08T06:34:05.803Z,6.90
2019-03-08T06:36:34.036Z,6.90
2019-03-08T06:39:02.276Z,7.00
2019-03-08T06:41:30.648Z,7.00
2019-03-08T06:43:58.927Z,7.10
2019-03-08T06:46:27.294Z,7.20
2019-03-08T06:48:57.669Z,7.20
2019-03-08T06:51:25.975Z,7.30
2019-03-08T06:53:54.223Z,7.30
2019-03-08T06:56:22.460Z,7.40
2019-03-08T06:58:52.335Z,7.40
2019-03-08T07:01:22.142Z,7.30
2019-03-08T07:03:50.541Z,7.30
2019-03-08T07:06:18.783Z,7.30
2019-03-08T07:08:47.003Z,7.30
2019-03-08T07:11:15.248Z,7.30
2019-03-08T07:13:43.476Z,7.20
2019-03-08T07:16:13.534Z,7.20
2019-03-08T07:18:41.694Z,7.10
2019-03-08T07:21:20.477Z,7.20
2019-03-08T07:23:50.382Z,7.20
2019-03-08T07:26:20.285Z,7.20
2019-03-08T07:28:52.927Z,7.20
2019-03-08T07:31:22.858Z,7.30
2019-03-08T07:34:11.150Z,7.30
2019-03-08T07:36:41.125Z,7.40
2019-03-08T07:39:25.975Z,7.40
2019-03-08T07:41:55.858Z,7.50
2019-03-08T07:44:43.974Z,7.50
2019-03-08T07:47:16.566Z,7.50
2019-03-08T07:49:46.524Z,7.60
2019-03-08T07:52:31.363Z,7.60
2019-03-08T07:55:19.356Z,7.60
2019-03-08T07:58:01.428Z,7.70
2019-03-08T08:00:33.944Z,7.80
2019-03-08T08:03:23.243Z,8.00
2019-03-08T08:05:58.288Z,8.20
2019-03-08T08:08:27.494Z,8.30
2019-03-08T08:11:13.753Z,8.40
2019-03-08T08:14:00.110Z,8.60
2019-03-08T08:16:46.425Z,8.60
2019-03-08T08:19:32.963Z,8.70
2019-03-08T08:22:02.853Z,8.80
2019-03-08T08:24:41.998Z,9.00
2019-03-08T08:27:31.289Z,9.30
2019-03-08T08:30:09.884Z,9.50
2019-03-08T08:32:40.183Z,9.60
2019-03-08T08:35:23.092Z,9.70
2019-03-08T08:38:04.941Z,9.80
2019-03-08T08:40:51.281Z,9.90
2019-03-08T08:43:27.167Z,9.90
2019-03-08T08:45:57.069Z,9.80
2019-03-08T08:48:29.922Z,9.60
2019-03-08T08:50:59.814Z,9.50
2019-03-08T08:53:46.216Z,9.40
2019-03-08T08:56:22.216Z,9.40
2019-03-08T08:58:52.115Z,9.40
2019-03-08T09:01:28.019Z,9.30
2019-03-08T09:03:57.997Z,9.30
2019-03-08T09:06:27.890Z,9.30
2019-03-08T09:09:00.699Z,9.30
2019-03-08T09:11:44.162Z,9.30
2019-03-08T09:14:07.991Z,9.40
2019-03-08T09:16:44.086Z,9.50
2019-03-08T09:19:13.963Z,9.60
2019-03-08T09:21:43.836Z,9.80
2019-03-08T09:24:16.680Z,9.90
2019-03-08T09:26:46.580Z,10.20
2019-03-08T09:29:40.805Z,10.30
2019-03-08T09:32:09.238Z,10.40
2019-03-08T09:34:39.493Z,10.40
2019-03-08T09:37:25.659Z,10.50
2019-03-08T09:40:11.992Z,10.60
2019-03-08T09:42:58.636Z,10.90
2019-03-08T09:45:34.779Z,11.00
2019-03-08T09:48:19.909Z,11.00
2019-03-08T09:50:49.832Z,11.10
2019-03-08T09:53:36.350Z,11.20
2019-03-08T09:56:12.338Z,11.10
2019-03-08T09:58:42.387Z,10.80
2019-03-08T10:01:20.733Z,10.70
2019-03-08T10:03:59.567Z,10.60
2019-03-08T10:06:41.287Z,10.40
2019-03-08T10:09:11.158Z,10.30
2019-03-08T10:11:50.146Z,10.50
2019-03-08T10:14:25.542Z,10.60
2019-03-08T10:16:58.378Z,10.70
2019-03-08T10:19:28.246Z,10.70
2019-03-08T10:22:07.202Z,10.70
2019-03-08T10:24:37.279Z,10.80
2019-03-08T10:27:07.162Z,10.80
2019-03-08T10:29:53.960Z,10.80
2019-03-08T10:32:39.920Z,10.90
2019-03-08T10:35:23.129Z,11.30
2019-03-08T10:37:44.759Z,11.80
2019-03-08T10:40:17.993Z,12.30
2019-03-08T10:42:58.810Z,12.80
2019-03-08T10:45:28.884Z,13.10
2019-03-08T10:47:58.812Z,13.40
2019-03-08T10:50:28.698Z,13.20
2019-03-08T10:53:01.608Z,13.00
2019-03-08T10:55:48.041Z,12.70
2019-03-08T10:58:34.224Z,12.20
2019-03-08T11:01:04.148Z,12.00
2019-03-08T11:03:34.039Z,11.80
2019-03-08T11:06:22.307Z,11.80
2019-03-08T11:08:54.969Z,11.70
2019-03-08T11:11:30.552Z,11.70
2019-03-08T11:14:09.371Z,11.60
2019-03-08T11:16:51.486Z,11.60
2019-03-08T11:19:24.333Z,11.60
2019-03-08T11:21:54.198Z,11.60
2019-03-08T11:24:24.477Z,11.50
2019-03-08T11:27:04.722Z,11.40
2019-03-08T11:29:34.631Z,11.30
2019-03-08T11:32:22.726Z,11.40
2019-03-08T11:35:06.054Z,11.40
2019-03-08T11:37:35.917Z,11.40
2019-03-08T11:40:11.136Z,11.40
2019-03-08T11:42:44.390Z,11.10
2019-03-08T11:45:20.399Z,11.00
2019-03-08T11:47:52.962Z,11.00
2019-03-08T11:50:25.541Z,10.90
2019-03-08T11:52:58.492Z,10.90
2019-03-08T11:55:28.378Z,10.90
2019-03-08T11:57:58.243Z,11.00
2019-03-08T12:00:44.750Z,11.10
2019-03-08T12:03:32.339Z,11.30
2019-03-08T12:06:11.105Z,11.50
2019-03-08T12:08:52.966Z,11.50
2019-03-08T12:11:39.402Z,11.50
2019-03-08T12:14:15.418Z,11.50
2019-03-08T12:16:51.154Z,11.40
2019-03-08T12:19:39.386Z,11.40
2019-03-08T12:22:09.247Z,11.40
2019-03-08T12:24:39.133Z,11.40
2019-03-08T12:27:14.992Z,11.50
2019-03-08T12:29:53.867Z,11.90
2019-03-08T12:32:40.215Z,12.40
2019-03-08T12:35:10.913Z,12.90
2019-03-08T12:37:40.789Z,13.00
2019-03-08T12:40:12.195Z,13.20
2019-03-08T12:42:44.832Z,13.60
2019-03-08T12:45:26.502Z,13.40
2019-03-08T12:47:56.389Z,14.00
2019-03-08T12:50:44.629Z,16.00
2019-03-08T12:53:23.473Z,17.00
2019-03-08T12:55:59.279Z,17.20
2019-03-08T12:58:40.949Z,16.70
2019-03-08T13:01:13.583Z,16.30
2019-03-08T13:03:43.439Z,15.60
2019-03-08T13:06:16.014Z,14.90
2019-03-08T13:08:45.896Z,14.40
2019-03-08T13:11:14.128Z,14.00
2019-03-08T13:13:42.376Z,13.40
2019-03-08T13:16:10.873Z,13.00
2019-03-08T13:18:39.151Z,12.50
2019-03-08T13:21:07.402Z,12.20
2019-03-08T13:23:35.648Z,12.10
2019-03-08T13:26:03.883Z,11.90
2019-03-08T13:28:32.118Z,11.80
2019-03-08T13:31:00.721Z,11.70
2019-03-08T13:33:28.957Z,11.70
2019-03-08T13:35:57.180Z,11.70
2019-03-08T13:38:25.444Z,11.50
2019-03-08T13:40:53.688Z,11.60
2019-03-08T13:43:21.912Z,11.80
2019-03-08T13:45:50.163Z,12.00
2019-03-08T13:48:18.404Z,12.10
2019-03-08T13:50:46.670Z,12.50
2019-03-08T13:53:14.989Z,13.10
2019-03-08T13:55:43.218Z,13.00
2019-03-08T13:58:11.525Z,13.70
2019-03-08T14:00:39.840Z,13.80
2019-03-08T14:03:08.077Z,13.30
2019-03-08T14:05:36.307Z,12.90
2019-03-08T14:08:04.565Z,12.40
2019-03-08T14:10:32.815Z,12.10
2019-03-08T14:13:01.102Z,11.80
2019-03-08T14:15:29.374Z,11.70
2019-03-08T14:17:57.627Z,11.60
2019-03-08T14:20:27.006Z,11.50
2019-03-08T14:22:55.247Z,11.50
2019-03-08T14:25:23.479Z,11.50
2019-03-08T14:27:51.721Z,11.30
2019-03-08T14:30:26.883Z,11.10
2019-03-08T14:32:57.922Z,10.80
2019-03-08T14:35:26.094Z,10.70
2019-03-08T14:37:56.033Z,10.80
2019-03-08T14:40:43.248Z,10.80
2019-03-08T14:43:16.923Z,10.90
2019-03-08T14:46:04.368Z,11.00
2019-03-08T14:48:32.667Z,13.00
2019-03-08T14:51:01.068Z,14.80
2019-03-08T14:53:32.878Z,15.80
2019-03-08T14:55:59.970Z,16.60
2019-03-08T14:58:28.398Z,17.10
2019-03-08T15:00:56.619Z,17.40
2019-03-08T15:03:24.929Z,18.10
2019-03-08T15:05:54.816Z,18.40
2019-03-08T15:08:23.148Z,18.20
2019-03-08T15:10:51.490Z,17.60
2019-03-08T15:13:20.132Z,17.50
2019-03-08T15:15:49.756Z,17.50
2019-03-08T15:18:18.013Z,17.60
2019-03-08T15:20:46.230Z,17.80
2019-03-08T15:23:17.220Z,17.80
2019-03-08T15:25:45.346Z,17.50
2019-03-08T15:28:14.402Z,17.10
2019-03-08T15:30:43.033Z,17.00
2019-03-08T15:33:11.262Z,16.80
2019-03-08T15:35:39.505Z,16.30
2019-03-08T15:38:07.765Z,16.00
2019-03-08T15:40:36.117Z,16.30
2019-03-08T15:43:04.343Z,16.50
2019-03-08T15:45:32.848Z,16.40
2019-03-08T15:48:01.122Z,16.60
2019-03-08T15:50:29.413Z,16.40
2019-03-08T15:52:57.692Z,16.40
2019-03-08T15:55:25.932Z,15.90
2019-03-08T15:57:54.173Z,15.60
2019-03-08T16:00:23.337Z,15.30
2019-03-08T16:02:51.637Z,14.90
2019-03-08T16:05:23.988Z,14.80
2019-03-08T16:07:50.777Z,14.20
2019-03-08T16:10:22.626Z,14.20
2019-03-08T16:12:50.933Z,14.10
2019-03-08T16:15:19.441Z,13.90
2019-03-08T16:17:47.682Z,13.70
2019-03-08T16:20:22.558Z,13.60
2019-03-08T16:22:50.788Z,13.40
2019-03-08T16:25:19.414Z,13.20
2019-03-08T16:27:47.653Z,13.10
2019-03-08T16:30:26.305Z,13.00
2019-03-08T16:33:13.140Z,12.90
2019-03-08T16:35:42.396Z,12.60
2019-03-08T16:38:12.237Z,12.30
2019-03-08T16:40:42.362Z,12.20
2019-03-08T16:43:24.589Z,12.10
2019-03-08T16:45:57.386Z,12.00
2019-03-08T16:48:27.210Z,11.80
2019-03-08T16:51:05.840Z,11.80
2019-03-08T16:53:44.910Z,11.70
2019-03-08T16:56:26.822Z,11.70
2019-03-08T16:59:11.816Z,11.40
2019-03-08T17:01:50.953Z,11.40
2019-03-08T17:04:20.846Z,11.30
2019-03-08T17:07:07.274Z,11.30
2019-03-08T17:09:46.199Z,11.20
2019-03-08T17:12:19.033Z,11.10
2019-03-08T17:14:48.909Z,11.00
2019-03-08T17:17:35.729Z,10.90
2019-03-08T17:20:13.635Z,10.90
2019-03-08T17:22:49.346Z,10.80
2019-03-08T17:25:25.226Z,10.70
2019-03-08T17:27:57.829Z,10.70
2019-03-08T17:30:27.698Z,10.60
2019-03-08T17:33:00.828Z,10.50
2019-03-08T17:35:30.708Z,10.50
2019-03-08T17:38:12.591Z,10.40
2019-03-08T17:40:42.463Z,10.30
2019-03-08T17:43:28.917Z,10.30
2019-03-08T17:46:15.499Z,10.20
2019-03-08T17:48:51.443Z,10.10
2019-03-08T17:51:21.335Z,10.10
2019-03-08T17:53:54.223Z,10.00
2019-03-08T17:56:29.988Z,9.90
2019-03-08T17:59:02.483Z,9.90
2019-03-08T18:01:32.353Z,9.80
2019-03-08T18:04:02.227Z,9.60
2019-03-08T18:06:48.540Z,9.50
2019-03-08T18:09:21.333Z,9.40
2019-03-08T18:11:53.958Z,9.30
2019-03-08T18:14:23.844Z,9.30
2019-03-08T18:16:53.734Z,9.20
2019-03-08T18:19:29.633Z,9.20
2019-03-08T18:21:59.501Z,9.10
2019-03-08T18:24:32.515Z,9.00
2019-03-08T18:27:02.397Z,8.90
2019-03-08T18:29:35.259Z,8.80
2019-03-08T18:32:11.058Z,8.80
2019-03-08T18:34:40.931Z,8.70
2019-03-08T18:37:23.046Z,8.60
2019-03-08T18:39:52.944Z,8.60
2019-03-08T18:42:35.122Z,8.60
2019-03-08T18:45:15.433Z,8.50
2019-03-08T18:48:01.869Z,8.40
2019-03-08T18:50:34.863Z,8.40
2019-03-08T18:53:16.812Z,8.50
2019-03-08T18:55:58.967Z,8.40
2019-03-08T18:58:46.791Z,8.40
2019-03-08T19:01:25.454Z,8.40
2019-03-08T19:03:58.057Z,8.30
2019-03-08T19:06:30.761Z,8.30
2019-03-08T19:09:15.951Z,8.20
2019-03-08T19:11:45.826Z,8.20
2019-03-08T19:14:18.820Z,8.20
2019-03-08T19:16:48.722Z,8.10
2019-03-08T19:19:27.408Z,8.20
2019-03-08T19:21:57.280Z,8.20
2019-03-08T19:24:39.266Z,8.20
2019-03-08T19:27:11.849Z,8.30
2019-03-08T19:29:47.815Z,8.10
2019-03-08T19:32:23.449Z,8.10
2019-03-08T19:34:53.338Z,8.20
2019-03-08T19:37:24.560Z,8.10
2019-03-08T19:40:03.881Z,8.10
2019-03-08T19:42:36.318Z,8.10
2019-03-08T19:45:08.900Z,8.10
2019-03-08T19:47:41.806Z,8.10
2019-03-08T19:50:29.972Z,8.00
2019-03-08T19:52:59.904Z,8.00
2019-03-08T19:55:29.762Z,7.90
2019-03-08T19:58:16.675Z,7.90
2019-03-08T20:01:05.036Z,7.90
2019-03-08T20:03:34.917Z,7.80
2019-03-08T20:06:19.934Z,7.90
2019-03-08T20:08:52.772Z,7.90
2019-03-08T20:11:25.651Z,7.90
2019-03-08T20:14:01.170Z,7.80
2019-03-08T20:16:47.611Z,7.80
2019-03-08T20:19:20.453Z,7.80
2019-03-08T20:21:59.487Z,7.80
2019-03-08T20:24:33.736Z,7.80
2019-03-08T20:27:09.597Z,7.80
2019-03-08T20:29:40.037Z,7.90
2019-03-08T20:32:28.133Z,7.90
2019-03-08T20:35:00.915Z,7.90
2019-03-08T20:37:30.799Z,7.90
2019-03-08T20:40:12.226Z,7.90
2019-03-08T20:42:42.156Z,7.90
2019-03-08T20:45:12.494Z,7.90
2019-03-08T20:47:40.753Z,7.90
2019-03-08T20:50:11.238Z,7.90
2019-03-08T20:52:39.483Z,7.90
2019-03-08T20:55:09.960Z,7.90
2019-03-08T20:57:38.215Z,7.90
2019-03-08T21:00:09.854Z,7.90
2019-03-08T21:02:38.074Z,7.90
2019-03-08T21:05:07.461Z,7.90
2019-03-08T21:07:35.692Z,7.90
2019-03-08T21:10:07.194Z,7.90
2019-03-08T21:12:35.418Z,7.90
2019-03-08T21:15:06.041Z,7.90
2019-03-08T21:17:34.273Z,7.90
2019-03-08T21:20:02.535Z,7.90
2019-03-08T21:22:30.756Z,7.90
2019-03-08T21:24:59.934Z,8.00
2019-03-08T21:27:28.605Z,8.00
2019-03-08T21:29:56.832Z,7.90
2019-03-08T21:32:25.076Z,7.90
2019-03-08T21:34:53.302Z,8.00
2019-03-08T21:37:21.545Z,8.00
2019-03-08T21:39:49.790Z,7.90
2019-03-08T21:42:18.331Z,7.90
2019-03-08T21:44:46.535Z,7.80
2019-03-08T21:47:14.767Z,7.90
2019-03-08T21:49:43.018Z,7.90
2019-03-08T21:52:11.258Z,7.90
2019-03-08T21:54:39.487Z,7.90
2019-03-08T21:57:07.711Z,8.00
2019-03-08T21:59:36.478Z,8.00
2019-03-08T22:02:04.779Z,8.00
2019-03-08T22:04:34.687Z,8.00
2019-03-08T22:07:02.932Z,7.90
2019-03-08T22:09:33.184Z,8.00
2019-03-08T22:12:01.405Z,8.00
2019-03-08T22:14:29.676Z,8.00
2019-03-08T22:16:57.901Z,8.00
2019-03-08T22:19:26.109Z,8.00
2019-03-08T22:21:54.366Z,8.10
2019-03-08T22:24:22.587Z,8.10
2019-03-08T22:26:50.829Z,8.10
2019-03-08T22:29:19.098Z,8.10
2019-03-08T22:31:47.310Z,8.10
2019-03-08T22:34:15.549Z,8.10
2019-03-08T22:36:44.059Z,8.10
2019-03-08T22:39:12.291Z,8.10
2019-03-08T22:41:40.535Z,8.10
2019-03-08T22:44:08.790Z,8.10
2019-03-08T22:46:45.012Z,8.10
2019-03-08T22:49:07.005Z,8.10
2019-03-08T22:51:35.231Z,8.10
2019-03-08T22:54:03.469Z,8.10
2019-03-08T22:56:31.723Z,8.10
2019-03-08T22:58:59.935Z,8.00
2019-03-08T23:01:29.800Z,8.00
2019-03-08T23:03:58.234Z,8.00
2019-03-08T23:06:26.458Z,7.90
2019-03-08T23:08:54.697Z,7.90
2019-03-08T23:11:22.924Z,7.90
2019-03-08T23:13:51.184Z,7.90
2019-03-08T23:16:19.408Z,7.90
2019-03-08T23:18:47.631Z,7.90
2019-03-08T23:21:15.968Z,7.90
2019-03-08T23:23:44.205Z,7.90
2019-03-08T23:26:12.422Z,7.90
2019-03-08T23:28:51.198Z,7.90
2019-03-08T23:31:21.098Z,7.90
2019-03-08T23:33:49.373Z,7.90
2019-03-08T23:36:17.611Z,7.90
2019-03-08T23:38:45.840Z,7.90
2019-03-08T23:41:14.102Z,7.80
2019-03-08T23:43:42.338Z,7.80
2019-03-08T23:46:10.579Z,7.90
2019-03-08T23:48:38.799Z,7.90
2019-03-08T23:51:26.485Z,7.90
2019-03-08T23:53:54.703Z,7.90
2019-03-08T23:56:22.932Z,7.90
2019-03-08T23:58:51.170Z,7.90
